Time;durP1;ratioP1;P1;durP2;ratioP2;P2;SDS_P1;SDS_P2;PMS_P1;PMS_P2;Temp;Humidity;BMP_temperature;BMP_pressure;BME280_temperature;BME280_humidity;BME280_pressure;Samples;Min_cycle;Max_cycle;Signal;HPM_P1;HPM_P2
2022/10/11 00:01:43;;;;;;;6.95;3.47;;;;;;;;;;5078042;28;20045;-76
2022/10/11 00:04:09;;;;;;;7.40;3.50;;;;;;;;;;5078155;28;20487;-76
2022/10/11 00:06:37;;;;;;;5.38;3.60;;;;;;;;;;5076647;28;20039;-76
2022/10/11 00:09:03;;;;;;;8.63;3.55;;;;;;;;;;5077598;28;20033;-76
2022/10/11 00:11:30;;;;;;;4.25;3.10;;;;;;;;;;5077664;28;20134;-76
2022/10/11 00:13:56;;;;;;;6.53;3.55;;;;;;;;;;5077641;28;20037;-76
2022/10/11 00:16:22;;;;;;;4.80;3.13;;;;;;;;;;5077437;28;20037;-76
2022/10/11 00:18:48;;;;;;;8.52;3.90;;;;;;;;;;5078065;28;20040;-76
2022/10/11 00:21:15;;;;;;;7.60;4.28;;;;;;;;;;5077889;28;20360;-76
2022/10/11 00:23:42;;;;;;;8.60;3.80;;;;;;;;;;5077948;28;20045;-76
2022/10/11 00:26:09;;;;;;;19.90;5.20;;;;;;;;;;5078111;28;20040;-76
2022/10/11 00:28:36;;;;;;;16.10;5.68;;;;;;;;;;5077370;28;20522;-76
2022/10/11 00:31:03;;;;;;;18.75;7.03;;;;;;;;;;5077384;28;20109;-76
2022/10/11 00:33:29;;;;;;;16.80;6.70;;;;;;;;;;5077108;28;20040;-76
2022/10/11 00:35:56;;;;;;;15.70;6.57;;;;;;;;;;5077985;28;20117;-76
2022/10/11 00:38:22;;;;;;;14.43;5.63;;;;;;;;;;5077370;28;20526;-76
2022/10/11 00:40:48;;;;;;;9.82;4.80;;;;;;;;;;5077049;28;20052;-76
2022/10/11 00:43:16;;;;;;;11.32;4.50;;;;;;;;;;5076606;28;20402;-76
2022/10/11 00:45:57;;;;;;;16.98;5.00;;;;;;;;;;5077153;28;20119;-76
2022/10/11 00:48:30;;;;;;;14.75;5.28;;;;;;;;;;5077680;28;20041;-76
2022/10/11 00:50:56;;;;;;;20.58;5.75;;;;;;;;;;5077245;28;20049;-76
2022/10/11 00:53:23;;;;;;;13.02;5.10;;;;;;;;;;5076638;28;20063;-76
2022/10/11 00:55:55;;;;;;;9.98;4.70;;;;;;;;;;5077128;28;20048;-76
2022/10/11 00:58:22;;;;;;;11.65;4.50;;;;;;;;;;5077030;28;20119;-76
2022/10/11 01:00:48;;;;;;;11.68;4.03;;;;;;;;;;5076910;28;20040;-76
2022/10/11 01:03:15;;;;;;;4.68;4.20;;;;;;;;;;5077478;28;20044;-76
2022/10/11 01:05:41;;;;;;;5.22;4.30;;;;;;;;;;5076848;28;20040;-76
2022/10/11 01:08:08;;;;;;;15.82;4.97;;;;;;;;;;5076509;28;20090;-76
2022/10/11 01:10:34;;;;;;;10.65;4.53;;;;;;;;;;5076691;28;20040;-76
2022/10/11 01:13:03;;;;;;;10.13;4.75;;;;;;;;;;5075342;28;20143;-76
2022/10/11 01:15:39;;;;;;;10.82;4.80;;;;;;;;;;5076406;28;20113;-76
2022/10/11 01:18:05;;;;;;;12.27;5.18;;;;;;;;;;5076933;28;20048;-76
2022/10/11 01:20:40;;;;;;;8.65;4.75;;;;;;;;;;5076263;28;20040;-76
2022/10/11 01:23:18;;;;;;;13.30;5.05;;;;;;;;;;5077099;28;20044;-76
2022/10/11 01:26:13;;;;;;;11.20;5.03;;;;;;;;;;5076816;28;20040;-76
2022/10/11 01:28:51;;;;;;;7.75;4.65;;;;;;;;;;5076316;28;20059;-76
2022/10/11 01:31:24;;;;;;;7.78;5.00;;;;;;;;;;5076234;28;20040;-76
2022/10/11 01:33:55;;;;;;;7.88;4.95;;;;;;;;;;5076698;28;20094;-76
2022/10/11 01:36:26;;;;;;;9.07;5.05;;;;;;;;;;5076240;28;20036;-76
2022/10/11 01:39:04;;;;;;;15.00;5.88;;;;;;;;;;5076201;28;20483;-76
2022/10/11 01:41:35;;;;;;;10.35;5.28;;;;;;;;;;5075822;28;20441;-76
2022/10/11 01:44:02;;;;;;;12.60;6.45;;;;;;;;;;5075864;28;20045;-76
2022/10/11 01:46:29;;;;;;;16.17;5.95;;;;;;;;;;5076337;28;20044;-76
2022/10/11 01:48:57;;;;;;;19.98;6.28;;;;;;;;;;5075940;28;20040;-76
2022/10/11 01:51:29;;;;;;;19.40;7.10;;;;;;;;;;5075872;28;20045;-76
2022/10/11 01:53:55;;;;;;;9.90;6.47;;;;;;;;;;5076106;28;20056;-76
2022/10/11 01:56:21;;;;;;;14.82;7.00;;;;;;;;;;5075745;28;20105;-76
2022/10/11 01:59:02;;;;;;;13.75;6.93;;;;;;;;;;5075163;28;20066;-76
2022/10/11 02:01:28;;;;;;;21.48;7.20;;;;;;;;;;5075798;28;20119;-76
2022/10/11 02:04:00;;;;;;;16.27;7.35;;;;;;;;;;5075326;28;20044;-76
2022/10/11 02:06:39;;;;;;;19.67;8.13;;;;;;;;;;5075696;28;20502;-76
2022/10/11 02:09:05;;;;;;;13.98;7.90;;;;;;;;;;5074977;28;20068;-76
2022/10/11 02:11:33;;;;;;;18.90;7.80;;;;;;;;;;5075182;28;20079;-76
2022/10/11 02:14:01;;;;;;;25.88;8.43;;;;;;;;;;5074972;28;20439;-76
2022/10/11 02:16:32;;;;;;;16.90;8.63;;;;;;;;;;5074894;28;20057;-76
2022/10/11 02:18:59;;;;;;;19.05;7.55;;;;;;;;;;5074828;28;20044;-76
2022/10/11 02:21:27;;;;;;;25.10;8.52;;;;;;;;;;5074787;28;20079;-76
2022/10/11 02:23:55;;;;;;;12.90;7.25;;;;;;;;;;5075125;28;20052;-76
2022/10/11 02:26:23;;;;;;;12.07;6.35;;;;;;;;;;5075004;28;20036;-76
2022/10/11 02:28:50;;;;;;;24.42;7.28;;;;;;;;;;5075107;28;20045;-76
2022/10/11 02:31:16;;;;;;;24.65;7.35;;;;;;;;;;5075113;28;20041;-76
2022/10/11 02:33:49;;;;;;;18.48;7.40;;;;;;;;;;5075118;28;20045;-76
2022/10/11 02:36:20;;;;;;;21.15;7.43;;;;;;;;;;5074850;28;20044;-76
2022/10/11 02:38:52;;;;;;;18.98;7.35;;;;;;;;;;5074874;28;20119;-76
2022/10/11 02:41:18;;;;;;;20.50;7.30;;;;;;;;;;5074831;28;20047;-76
2022/10/11 02:43:51;;;;;;;28.10;7.70;;;;;;;;;;5074658;28;20052;-76
2022/10/11 02:46:17;;;;;;;20.83;7.88;;;;;;;;;;5075068;28;20044;-75
2022/10/11 02:48:43;;;;;;;16.10;7.70;;;;;;;;;;5074655;28;20052;-76
2022/10/11 02:51:13;;;;;;;23.23;8.07;;;;;;;;;;5075125;28;20078;-76
2022/10/11 02:53:39;;;;;;;19.85;8.38;;;;;;;;;;5074864;28;20049;-76
2022/10/11 02:56:05;;;;;;;20.35;8.60;;;;;;;;;;5074818;28;20060;-76
2022/10/11 02:58:32;;;;;;;21.35;8.82;;;;;;;;;;5074712;28;20028;-76
2022/10/11 03:00:58;;;;;;;24.88;9.45;;;;;;;;;;5074571;28;20044;-76
2022/10/11 03:03:24;;;;;;;23.05;8.68;;;;;;;;;;5075297;28;20055;-76
2022/10/11 03:05:50;;;;;;;24.65;7.07;;;;;;;;;;5075048;28;20041;-76
2022/10/11 03:08:17;;;;;;;32.15;7.80;;;;;;;;;;5074743;28;20028;-77
2022/10/11 03:10:44;;;;;;;12.80;6.72;;;;;;;;;;5074382;28;20124;-76
2022/10/11 03:13:10;;;;;;;14.38;7.30;;;;;;;;;;5075015;28;20041;-76
2022/10/11 03:15:36;;;;;;;11.18;7.32;;;;;;;;;;5074246;28;20119;-76
2022/10/11 03:18:02;;;;;;;11.07;6.25;;;;;;;;;;5074375;28;20037;-76
2022/10/11 03:20:28;;;;;;;10.57;7.10;;;;;;;;;;5074366;28;20052;-76
2022/10/11 03:22:55;;;;;;;17.00;6.82;;;;;;;;;;5074943;28;20055;-76
2022/10/11 03:25:21;;;;;;;11.82;6.47;;;;;;;;;;5074358;28;20040;-76
2022/10/11 03:27:47;;;;;;;9.75;6.20;;;;;;;;;;5074379;28;20043;-76
2022/10/11 03:30:15;;;;;;;10.25;6.50;;;;;;;;;;5074236;28;20495;-76
2022/10/11 03:32:42;;;;;;;11.55;5.70;;;;;;;;;;5075077;28;20044;-76
2022/10/11 03:35:08;;;;;;;16.55;6.32;;;;;;;;;;5074518;28;20043;-76
2022/10/11 03:37:34;;;;;;;16.42;5.68;;;;;;;;;;5074460;28;20110;-76
2022/10/11 03:40:02;;;;;;;20.55;6.30;;;;;;;;;;5073184;28;20119;-76
2022/10/11 03:42:28;;;;;;;14.35;6.65;;;;;;;;;;5075023;28;20155;-76
2022/10/11 03:44:55;;;;;;;7.57;6.05;;;;;;;;;;5073946;28;20072;-76
2022/10/11 03:47:22;;;;;;;7.60;5.50;;;;;;;;;;5074940;28;20044;-76
2022/10/11 03:49:48;;;;;;;6.30;5.70;;;;;;;;;;5074073;28;20492;-76
2022/10/11 03:52:14;;;;;;;7.57;5.47;;;;;;;;;;5074625;28;20048;-76
2022/10/11 03:54:40;;;;;;;6.00;4.53;;;;;;;;;;5074125;28;20476;-76
2022/10/11 03:57:06;;;;;;;5.55;4.53;;;;;;;;;;5074056;28;20043;-76
2022/10/11 03:59:32;;;;;;;8.43;4.50;;;;;;;;;;5076525;28;20071;-76
2022/10/11 04:01:58;;;;;;;9.82;4.47;;;;;;;;;;5072633;28;20499;-76
2022/10/11 04:04:24;;;;;;;6.65;4.57;;;;;;;;;;5072737;28;20036;-76
2022/10/11 04:06:50;;;;;;;16.25;5.00;;;;;;;;;;5072301;28;20033;-76
2022/10/11 04:09:17;;;;;;;11.30;5.63;;;;;;;;;;5072501;28;20041;-76
2022/10/11 04:11:43;;;;;;;11.02;5.07;;;;;;;;;;5072231;28;20518;-76
2022/10/11 04:14:09;;;;;;;19.85;5.15;;;;;;;;;;5072190;28;20098;-76
2022/10/11 04:16:37;;;;;;;36.83;5.93;;;;;;;;;;5072481;28;20037;-76
2022/10/11 04:19:04;;;;;;;21.67;5.75;;;;;;;;;;5069798;28;20037;-76
2022/10/11 04:21:30;;;;;;;11.73;5.15;;;;;;;;;;5072493;28;20044;-76
2022/10/11 04:23:56;;;;;;;12.68;5.68;;;;;;;;;;5072281;28;20079;-76
2022/10/11 04:26:22;;;;;;;17.98;5.45;;;;;;;;;;5072367;28;20047;-76
2022/10/11 04:28:48;;;;;;;12.05;5.75;;;;;;;;;;5075719;28;20046;-79
2022/10/11 04:31:14;;;;;;;16.10;5.28;;;;;;;;;;5075574;28;20117;-75
2022/10/11 04:33:40;;;;;;;9.57;5.68;;;;;;;;;;5075057;28;20045;-76
2022/10/11 04:36:07;;;;;;;10.48;5.43;;;;;;;;;;5075575;28;20036;-76
2022/10/11 04:38:33;;;;;;;16.38;4.90;;;;;;;;;;5077137;28;20045;-76
2022/10/11 04:41:06;;;;;;;9.90;4.78;;;;;;;;;;5075853;28;20048;-76
2022/10/11 04:43:32;;;;;;;9.27;5.07;;;;;;;;;;5076675;28;20048;-76
2022/10/11 04:45:58;;;;;;;11.88;4.68;;;;;;;;;;5076001;28;20059;-76
2022/10/11 04:48:24;;;;;;;17.55;5.10;;;;;;;;;;5077068;28;20047;-76
2022/10/11 04:50:50;;;;;;;9.55;4.50;;;;;;;;;;5076558;28;20094;-76
2022/10/11 04:53:16;;;;;;;6.45;4.10;;;;;;;;;;5076509;28;20083;-76
2022/10/11 04:55:43;;;;;;;7.25;4.43;;;;;;;;;;5076559;28;20041;-76
2022/10/11 04:58:09;;;;;;;5.07;4.40;;;;;;;;;;5075161;28;20039;-76
2022/10/11 05:00:35;;;;;;;8.02;4.45;;;;;;;;;;5076240;28;20032;-75
2022/10/11 05:03:01;;;;;;;12.18;5.00;;;;;;;;;;5076798;28;20515;-76
2022/10/11 05:05:27;;;;;;;7.45;5.05;;;;;;;;;;5076553;28;20036;-76
2022/10/11 05:07:53;;;;;;;9.40;4.97;;;;;;;;;;5076316;28;20075;-76
2022/10/11 05:10:19;;;;;;;7.05;4.80;;;;;;;;;;5076189;28;20047;-76
2022/10/11 05:12:45;;;;;;;7.28;4.53;;;;;;;;;;5076221;28;20057;-76
2022/10/11 05:15:12;;;;;;;5.97;4.28;;;;;;;;;;5076126;28;20044;-76
2022/10/11 05:17:38;;;;;;;8.35;4.50;;;;;;;;;;5075046;28;20040;-76
2022/10/11 05:20:04;;;;;;;29.77;4.85;;;;;;;;;;5075008;28;20223;-76
2022/10/11 05:22:30;;;;;;;11.43;4.68;;;;;;;;;;5075135;28;20055;-76
2022/10/11 05:24:57;;;;;;;6.75;5.32;;;;;;;;;;5075252;28;20407;-75
2022/10/11 05:27:23;;;;;;;25.15;5.35;;;;;;;;;;5076434;28;20033;-75
2022/10/11 05:29:49;;;;;;;17.38;5.30;;;;;;;;;;5075138;28;20036;-75
2022/10/11 05:32:15;;;;;;;16.05;5.78;;;;;;;;;;5074804;28;20049;-76
2022/10/11 05:34:41;;;;;;;9.48;5.35;;;;;;;;;;5074841;28;20044;-76
2022/10/11 05:37:07;;;;;;;17.70;5.10;;;;;;;;;;5074901;28;20067;-76
2022/10/11 05:39:33;;;;;;;7.05;4.47;;;;;;;;;;5078019;28;20072;-76
2022/10/11 05:41:59;;;;;;;6.18;5.05;;;;;;;;;;5074825;28;20078;-76
2022/10/11 05:44:25;;;;;;;12.35;4.68;;;;;;;;;;5074966;28;20044;-75
2022/10/11 05:46:51;;;;;;;43.72;5.80;;;;;;;;;;5075882;28;20036;-75
2022/10/11 05:49:17;;;;;;;10.07;5.55;;;;;;;;;;5074061;28;20096;-76
2022/10/11 05:51:44;;;;;;;18.85;5.30;;;;;;;;;;5073136;28;20450;-76
2022/10/11 05:54:10;;;;;;;8.82;4.95;;;;;;;;;;5074712;28;20041;-75
2022/10/11 05:56:36;;;;;;;10.45;6.15;;;;;;;;;;5074187;28;20503;-75
2022/10/11 05:59:03;;;;;;;16.17;5.90;;;;;;;;;;5061029;28;20043;-76
2022/10/11 06:01:29;;;;;;;20.73;5.88;;;;;;;;;;5071532;28;20048;-74
2022/10/11 06:03:56;;;;;;;9.82;5.65;;;;;;;;;;5074093;28;20166;-74
2022/10/11 06:06:22;;;;;;;17.95;6.15;;;;;;;;;;5074901;28;20040;-74
2022/10/11 06:08:48;;;;;;;23.13;6.38;;;;;;;;;;5075164;28;20063;-81
2022/10/11 06:11:16;;;;;;;15.63;6.25;;;;;;;;;;5074599;28;20054;-75
2022/10/11 06:13:43;;;;;;;52.47;6.28;;;;;;;;;;5072655;28;20052;-75
2022/10/11 06:16:09;;;;;;;19.92;5.18;;;;;;;;;;5074531;28;20074;-75
2022/10/11 06:18:36;;;;;;;40.90;6.07;;;;;;;;;;5074446;28;20046;-76
2022/10/11 06:21:03;;;;;;;20.33;5.85;;;;;;;;;;5073924;28;20109;-76
2022/10/11 06:23:29;;;;;;;21.25;5.35;;;;;;;;;;5071586;28;20048;-76
2022/10/11 06:25:59;;;;;;;24.35;5.68;;;;;;;;;;5073830;28;20064;-76
2022/10/11 06:28:26;;;;;;;27.13;5.40;;;;;;;;;;5074047;28;20056;-76
2022/10/11 06:30:53;;;;;;;20.70;5.03;;;;;;;;;;5074316;28;20040;-76
2022/10/11 06:33:19;;;;;;;15.10;5.88;;;;;;;;;;5073904;28;20036;-75
2022/10/11 06:35:45;;;;;;;39.97;6.55;;;;;;;;;;5074607;28;20040;-75
2022/10/11 06:38:11;;;;;;;47.05;5.85;;;;;;;;;;5073864;28;20077;-75
2022/10/11 06:40:38;;;;;;;39.10;5.53;;;;;;;;;;5074246;28;20041;-75
2022/10/11 06:43:04;;;;;;;31.58;5.70;;;;;;;;;;5074651;28;20045;-76
2022/10/11 06:45:30;;;;;;;16.25;5.35;;;;;;;;;;5074121;28;20043;-75
2022/10/11 06:47:56;;;;;;;42.97;5.53;;;;;;;;;;5074139;28;20068;-77
2022/10/11 06:50:23;;;;;;;42.08;6.10;;;;;;;;;;5073500;28;20044;-75
2022/10/11 06:52:49;;;;;;;42.40;4.40;;;;;;;;;;5074191;28;20083;-75
2022/10/11 06:55:15;;;;;;;31.77;4.82;;;;;;;;;;5073912;28;20045;-76
2022/10/11 06:57:41;;;;;;;52.92;5.28;;;;;;;;;;5074080;28;20044;-75
2022/10/11 07:00:08;;;;;;;17.25;5.35;;;;;;;;;;5074166;28;20071;-75
2022/10/11 07:02:34;;;;;;;22.77;4.93;;;;;;;;;;5072936;28;20098;-74
2022/10/11 07:05:00;;;;;;;28.75;4.47;;;;;;;;;;5073043;28;20098;-74
2022/10/11 07:07:26;;;;;;;15.88;4.88;;;;;;;;;;5072757;28;20036;-74
2022/10/11 07:09:52;;;;;;;14.60;4.53;;;;;;;;;;5074294;28;20045;-74
2022/10/11 07:12:18;;;;;;;11.23;4.70;;;;;;;;;;5072770;28;20519;-75
2022/10/11 07:14:44;;;;;;;16.17;4.22;;;;;;;;;;5053868;28;20124;-74
2022/10/11 07:17:10;;;;;;;16.20;4.80;;;;;;;;;;5054338;28;20037;-75
2022/10/11 07:19:37;;;;;;;13.88;5.65;;;;;;;;;;5055461;28;20041;-75
2022/10/11 07:22:03;;;;;;;13.00;4.47;;;;;;;;;;5060157;28;20048;-75
2022/10/11 07:24:29;;;;;;;5.88;4.15;;;;;;;;;;5069689;28;20190;-75
2022/10/11 07:26:55;;;;;;;7.20;4.00;;;;;;;;;;5064595;28;20063;-75
2022/10/11 07:29:21;;;;;;;6.40;3.40;;;;;;;;;;5072855;28;20124;-74
2022/10/11 07:31:48;;;;;;;7.80;3.22;;;;;;;;;;5073254;28;20141;-74
2022/10/11 07:34:14;;;;;;;5.20;3.00;;;;;;;;;;5073066;28;20507;-75
2022/10/11 07:36:41;;;;;;;6.65;2.92;;;;;;;;;;5071200;28;20123;-74
2022/10/11 07:39:07;;;;;;;3.35;3.15;;;;;;;;;;5072345;28;20060;-75
2022/10/11 07:41:34;;;;;;;3.40;3.08;;;;;;;;;;5073307;28;20098;-76
2022/10/11 07:44:00;;;;;;;3.65;3.17;;;;;;;;;;5071166;28;20037;-76
2022/10/11 07:46:26;;;;;;;3.58;3.10;;;;;;;;;;5071151;28;20048;-76
2022/10/11 07:48:52;;;;;;;5.95;2.85;;;;;;;;;;5073516;28;20040;-76
2022/10/11 07:51:21;;;;;;;3.63;2.80;;;;;;;;;;5071996;28;20439;-77
2022/10/11 07:53:48;;;;;;;4.22;3.08;;;;;;;;;;5068633;28;20420;-77
2022/10/11 07:56:16;;;;;;;3.13;2.83;;;;;;;;;;5072574;28;20607;-76
2022/10/11 07:58:42;;;;;;;3.92;3.20;;;;;;;;;;5072974;28;20407;-77
2022/10/11 08:01:09;;;;;;;3.40;2.75;;;;;;;;;;5075084;28;20051;-77
2022/10/11 08:03:35;;;;;;;6.00;3.50;;;;;;;;;;5078070;28;20029;-77
2022/10/11 08:06:06;;;;;;;4.50;3.45;;;;;;;;;;5077617;28;20036;-77
2022/10/11 08:08:32;;;;;;;5.93;3.40;;;;;;;;;;5077712;28;20036;-77
2022/10/11 08:10:58;;;;;;;3.83;3.53;;;;;;;;;;5077902;28;20074;-77
2022/10/11 08:13:25;;;;;;;3.95;3.55;;;;;;;;;;5077129;28;20045;-77
2022/10/11 08:15:51;;;;;;;4.20;3.42;;;;;;;;;;5077247;28;20040;-76
2022/10/11 08:18:17;;;;;;;5.28;3.00;;;;;;;;;;5077504;28;20040;-76
2022/10/11 08:20:43;;;;;;;4.25;3.00;;;;;;;;;;5077423;28;20097;-76
2022/10/11 08:23:10;;;;;;;3.47;3.10;;;;;;;;;;5077692;28;20102;-76
2022/10/11 08:25:37;;;;;;;2.63;2.42;;;;;;;;;;5077337;28;20068;-76
2022/10/11 08:28:03;;;;;;;4.43;2.92;;;;;;;;;;5077222;28;20032;-76
2022/10/11 08:30:29;;;;;;;4.50;2.88;;;;;;;;;;5077265;28;20045;-76
2022/10/11 08:32:56;;;;;;;5.00;3.00;;;;;;;;;;5077515;28;20120;-76
2022/10/11 08:35:22;;;;;;;4.45;3.15;;;;;;;;;;5077046;28;20044;-76
2022/10/11 08:37:48;;;;;;;4.88;2.80;;;;;;;;;;5076862;28;20383;-76
2022/10/11 08:40:16;;;;;;;5.75;2.65;;;;;;;;;;5077113;28;20036;-76
2022/10/11 08:42:45;;;;;;;4.43;2.75;;;;;;;;;;5075358;28;20123;-76
2022/10/11 08:45:26;;;;;;;3.50;2.50;;;;;;;;;;5077047;28;20119;-76
2022/10/11 08:47:58;;;;;;;4.18;2.60;;;;;;;;;;5075435;28;20033;-76
2022/10/11 08:50:25;;;;;;;4.88;2.60;;;;;;;;;;5076438;28;20490;-76
2022/10/11 08:52:57;;;;;;;6.18;2.38;;;;;;;;;;5077430;28;20052;-76
2022/10/11 08:55:26;;;;;;;7.32;4.85;;;;;;;;;;5076778;28;20059;-76
2022/10/11 08:57:54;;;;;;;5.88;2.72;;;;;;;;;;5076652;28;20033;-76
2022/10/11 09:00:20;;;;;;;3.40;2.67;;;;;;;;;;5077035;28;20051;-76
2022/10/11 09:02:53;;;;;;;5.35;2.45;;;;;;;;;;5077249;28;20152;-76
2022/10/11 09:05:19;;;;;;;3.97;2.65;;;;;;;;;;5076741;28;20048;-76
2022/10/11 09:08:04;;;;;;;4.28;2.22;;;;;;;;;;5074655;28;20056;-76
2022/10/11 09:10:39;;;;;;;5.35;2.90;;;;;;;;;;5075419;28;20041;-76
2022/10/11 09:13:17;;;;;;;5.05;2.00;;;;;;;;;;5075876;28;20048;-76
2022/10/11 09:15:49;;;;;;;27.05;17.63;;;;;;;;;;5076477;28;20040;-76
2022/10/11 09:18:22;;;;;;;4.60;2.97;;;;;;;;;;5075696;28;20043;-76
2022/10/11 09:20:51;;;;;;;6.63;3.65;;;;;;;;;;5076393;28;20044;-76
2022/10/11 09:23:36;;;;;;;6.82;2.33;;;;;;;;;;5076853;28;20045;-76
2022/10/11 09:26:09;;;;;;;7.57;3.88;;;;;;;;;;5076530;28;20036;-76
2022/10/11 09:28:35;;;;;;;5.85;4.63;;;;;;;;;;5076336;28;20600;-76
2022/10/11 09:31:01;;;;;;;7.05;2.95;;;;;;;;;;5075045;28;20043;-75
2022/10/11 09:33:27;;;;;;;5.10;2.42;;;;;;;;;;5076482;28;20044;-75
2022/10/11 09:35:56;;;;;;;3.95;2.42;;;;;;;;;;5076321;28;20066;-75
2022/10/11 09:38:49;;;;;;;9.43;5.03;;;;;;;;;;5061563;28;20095;-75
2022/10/11 09:41:26;;;;;;;12.27;4.88;;;;;;;;;;5059651;28;20060;-76
2022/10/11 09:43:52;;;;;;;6.45;3.97;;;;;;;;;;5055562;28;20056;-74
2022/10/11 09:46:18;;;;;;;7.22;2.85;;;;;;;;;;5055871;28;20045;-75
2022/10/11 09:48:45;;;;;;;7.07;2.80;;;;;;;;;;5055204;28;20040;-75
2022/10/11 09:51:14;;;;;;;3.08;2.20;;;;;;;;;;5055961;28;20128;-75
2022/10/11 09:53:57;;;;;;;4.95;3.55;;;;;;;;;;5056101;28;20091;-75
2022/10/11 09:56:25;;;;;;;5.90;2.92;;;;;;;;;;5062741;28;20052;-75
2022/10/11 09:59:05;;;;;;;5.32;2.47;;;;;;;;;;5066915;28;20036;-75
2022/10/11 10:01:32;;;;;;;16.55;8.38;;;;;;;;;;5071137;28;20052;-75
2022/10/11 10:04:08;;;;;;;4.57;2.10;;;;;;;;;;5071466;28;20602;-75
2022/10/11 10:06:35;;;;;;;5.85;2.67;;;;;;;;;;5067383;28;20044;-76
2022/10/11 10:09:21;;;;;;;2.40;2.20;;;;;;;;;;5068752;28;20094;-76
2022/10/11 10:11:48;;;;;;;5.15;2.85;;;;;;;;;;5054065;28;20052;-75
2022/10/11 10:14:22;;;;;;;5.53;3.05;;;;;;;;;;5068064;28;20040;-75
2022/10/11 10:16:49;;;;;;;6.22;2.67;;;;;;;;;;5074778;28;20045;-75
2022/10/11 10:19:20;;;;;;;8.07;2.83;;;;;;;;;;5073354;28;20032;-75
2022/10/11 10:21:47;;;;;;;4.28;3.20;;;;;;;;;;5074363;28;20040;-75
2022/10/11 10:24:28;;;;;;;7.20;3.88;;;;;;;;;;5071522;28;20058;-76
2022/10/11 10:27:08;;;;;;;4.85;3.20;;;;;;;;;;5074009;28;20040;-76
2022/10/11 10:29:34;;;;;;;6.50;2.65;;;;;;;;;;5073118;28;20048;-76
2022/10/11 10:32:21;;;;;;;7.95;2.70;;;;;;;;;;5073236;28;20048;-75
2022/10/11 10:34:50;;;;;;;4.95;2.67;;;;;;;;;;5073987;28;20085;-75
2022/10/11 10:37:26;;;;;;;6.85;2.65;;;;;;;;;;5073778;28;20036;-75
2022/10/11 10:39:56;;;;;;;4.75;2.67;;;;;;;;;;5073685;28;20166;-75
2022/10/11 10:42:22;;;;;;;5.60;2.50;;;;;;;;;;5073413;28;20055;-75
2022/10/11 10:44:53;;;;;;;5.63;2.38;;;;;;;;;;5072974;28;20044;-75
2022/10/11 10:47:42;;;;;;;3.80;2.13;;;;;;;;;;5072437;28;20045;-75
2022/10/11 10:50:08;;;;;;;6.00;2.58;;;;;;;;;;5068230;28;20438;-76
2022/10/11 10:52:34;;;;;;;4.47;2.30;;;;;;;;;;5074039;28;20048;-76
2022/10/11 10:55:19;;;;;;;2.60;2.17;;;;;;;;;;5071774;28;20060;-76
2022/10/11 10:57:56;;;;;;;5.10;2.10;;;;;;;;;;5073969;28;20123;-75
2022/10/11 11:00:23;;;;;;;4.20;2.03;;;;;;;;;;5073047;28;20137;-77
2022/10/11 11:02:58;;;;;;;3.45;2.40;;;;;;;;;;5074433;28;20055;-76
2022/10/11 11:05:30;;;;;;;5.18;2.08;;;;;;;;;;5072113;28;20060;-76
2022/10/11 11:07:56;;;;;;;3.95;1.95;;;;;;;;;;5073430;28;20576;-77
2022/10/11 11:10:32;;;;;;;3.00;2.05;;;;;;;;;;5072240;28;20052;-77
2022/10/11 11:13:17;;;;;;;4.93;2.35;;;;;;;;;;5072600;28;20048;-77
2022/10/11 11:16:10;;;;;;;2.72;1.92;;;;;;;;;;5074171;28;20039;-77
2022/10/11 11:18:39;;;;;;;4.85;2.45;;;;;;;;;;5057528;28;20044;-77
2022/10/11 11:21:24;;;;;;;2.88;2.05;;;;;;;;;;5073502;28;20042;-76
2022/10/11 11:23:50;;;;;;;3.28;2.13;;;;;;;;;;5073157;28;20040;-76
2022/10/11 11:26:35;;;;;;;3.72;1.95;;;;;;;;;;5073364;28;20253;-75
2022/10/11 11:29:21;;;;;;;6.78;2.42;;;;;;;;;;5072857;28;20032;-77
2022/10/11 11:31:50;;;;;;;4.22;2.13;;;;;;;;;;5059920;28;20101;-76
2022/10/11 11:34:28;;;;;;;5.35;2.10;;;;;;;;;;5073489;28;20064;-80
2022/10/11 11:37:01;;;;;;;4.60;2.22;;;;;;;;;;5076631;28;20422;-80
2022/10/11 11:39:47;;;;;;;4.07;2.20;;;;;;;;;;5078462;28;20046;-80
2022/10/11 11:42:14;;;;;;;4.45;1.98;;;;;;;;;;5078084;28;20042;-78
2022/10/11 11:44:43;;;;;;;3.92;2.50;;;;;;;;;;5076515;28;20122;-80
2022/10/11 11:47:17;;;;;;;4.38;1.85;;;;;;;;;;5077775;28;20040;-80
2022/10/11 11:50:04;;;;;;;4.43;2.13;;;;;;;;;;5074487;28;20048;-79
2022/10/11 11:52:35;;;;;;;4.78;3.05;;;;;;;;;;5076022;28;20060;-79
2022/10/11 11:55:05;;;;;;;4.78;1.80;;;;;;;;;;5074260;28;20132;-77
2022/10/11 11:57:52;;;;;;;3.40;1.90;;;;;;;;;;5077614;28;20036;-79
2022/10/11 12:00:23;;;;;;;4.78;2.33;;;;;;;;;;5076486;28;20051;-78
2022/10/11 12:02:58;;;;;;;5.00;2.00;;;;;;;;;;5077346;28;20119;-79
2022/10/11 12:05:26;;;;;;;3.17;2.08;;;;;;;;;;5078313;28;20041;-79
2022/10/11 12:08:01;;;;;;;5.72;3.00;;;;;;;;;;5078009;28;20040;-78
2022/10/11 12:10:37;;;;;;;8.80;2.20;;;;;;;;;;5077641;28;20071;-78
2022/10/11 12:13:09;;;;;;;4.78;1.70;;;;;;;;;;5077103;28;20044;-78
2022/10/11 12:15:35;;;;;;;3.75;1.77;;;;;;;;;;5077823;28;20472;-79
2022/10/11 12:18:04;;;;;;;3.42;1.90;;;;;;;;;;5077221;28;20575;-78
2022/10/11 12:20:39;;;;;;;6.40;2.28;;;;;;;;;;5077225;28;20123;-78
2022/10/11 12:23:24;;;;;;;5.40;2.20;;;;;;;;;;5077956;28;20060;-78
2022/10/11 12:26:09;;;;;;;9.55;2.63;;;;;;;;;;5077394;28;20036;-79
2022/10/11 12:28:41;;;;;;;4.80;1.92;;;;;;;;;;5077561;28;20043;-78
2022/10/11 12:31:21;;;;;;;5.88;2.05;;;;;;;;;;5077255;28;20093;-78
2022/10/11 12:33:50;;;;;;;4.60;2.22;;;;;;;;;;5076885;28;20040;-79
2022/10/11 12:36:31;;;;;;;2.55;1.60;;;;;;;;;;5077461;28;20043;-78
2022/10/11 12:39:15;;;;;;;5.28;2.10;;;;;;;;;;5066285;28;20068;-72
2022/10/11 12:41:52;;;;;;;3.83;2.17;;;;;;;;;;5073826;28;20071;-73
2022/10/11 12:44:21;;;;;;;7.40;2.67;;;;;;;;;;5076276;28;20040;-73
2022/10/11 12:46:53;;;;;;;6.40;1.92;;;;;;;;;;5076371;28;20449;-73
2022/10/11 12:49:31;;;;;;;4.88;2.15;;;;;;;;;;5075829;28;20048;-74
2022/10/11 12:52:02;;;;;;;6.25;1.98;;;;;;;;;;5071097;28;20047;-72
2022/10/11 12:54:47;;;;;;;3.80;2.15;;;;;;;;;;5076601;28;20047;-73
2022/10/11 12:57:32;;;;;;;6.00;1.95;;;;;;;;;;5077016;28;20110;-74
2022/10/11 13:00:16;;;;;;;4.18;1.90;;;;;;;;;;5076556;28;20036;-74
2022/10/11 13:02:42;;;;;;;5.45;2.20;;;;;;;;;;5077824;28;20036;-74
2022/10/11 13:05:28;;;;;;;5.53;2.10;;;;;;;;;;5076672;28;20068;-75
2022/10/11 13:07:56;;;;;;;3.40;2.13;;;;;;;;;;5062715;28;20040;-74
2022/10/11 13:10:26;;;;;;;5.40;2.20;;;;;;;;;;5076542;28;20067;-74
2022/10/11 13:12:53;;;;;;;3.33;1.70;;;;;;;;;;5076696;28;20131;-74
2022/10/11 13:15:21;;;;;;;4.55;2.28;;;;;;;;;;5076461;28;20032;-73
2022/10/11 13:17:53;;;;;;;11.10;2.20;;;;;;;;;;5077283;28;20128;-74
2022/10/11 13:20:21;;;;;;;4.35;2.05;;;;;;;;;;5076736;28;20048;-71
2022/10/11 13:22:48;;;;;;;4.35;1.70;;;;;;;;;;5076887;28;20051;-74
2022/10/11 13:25:19;;;;;;;6.28;1.95;;;;;;;;;;5076562;28;20037;-74
2022/10/11 13:27:45;;;;;;;8.27;5.10;;;;;;;;;;5069706;28;20041;-71
2022/10/11 13:30:17;;;;;;;4.38;2.17;;;;;;;;;;5064112;28;20041;-72
2022/10/11 13:32:43;;;;;;;5.50;3.10;;;;;;;;;;5056004;28;20487;-72
2022/10/11 13:35:32;;;;;;;6.07;2.33;;;;;;;;;;5056362;28;20041;-72
2022/10/11 13:37:59;;;;;;;4.40;2.50;;;;;;;;;;5047930;28;20167;-72
2022/10/11 13:40:25;;;;;;;5.38;1.85;;;;;;;;;;5055692;28;20041;-72
2022/10/11 13:42:52;;;;;;;3.53;2.55;;;;;;;;;;5055766;28;20052;-72
2022/10/11 13:45:22;;;;;;;3.15;2.13;;;;;;;;;;5055812;28;20052;-72
2022/10/11 13:47:49;;;;;;;6.43;4.03;;;;;;;;;;5055492;28;20534;-73
2022/10/11 13:50:15;;;;;;;5.22;2.42;;;;;;;;;;5055389;28;20032;-72
2022/10/11 13:53:00;;;;;;;6.78;2.53;;;;;;;;;;5055269;28;20088;-72
2022/10/11 13:55:28;;;;;;;4.97;2.13;;;;;;;;;;5055680;28;20057;-72
2022/10/11 13:57:55;;;;;;;4.07;2.92;;;;;;;;;;5055497;28;20041;-73
2022/10/11 14:00:24;;;;;;;4.07;2.42;;;;;;;;;;5070720;28;20044;-73
2022/10/11 14:03:11;;;;;;;4.03;2.22;;;;;;;;;;5075022;28;20119;-73
2022/10/11 14:05:39;;;;;;;5.40;2.20;;;;;;;;;;5066495;28;20067;-74
2022/10/11 14:08:30;;;;;;;2.50;1.88;;;;;;;;;;5065611;28;20404;-72
2022/10/11 14:10:56;;;;;;;9.07;6.03;;;;;;;;;;5072173;28;20044;-75
2022/10/11 14:13:25;;;;;;;4.85;2.28;;;;;;;;;;5073044;28;20058;-72
2022/10/11 14:16:17;;;;;;;5.43;2.45;;;;;;;;;;5072867;28;20039;-72
2022/10/11 14:18:51;;;;;;;5.85;2.70;;;;;;;;;;5069907;28;20043;-73
2022/10/11 14:21:30;;;;;;;6.57;2.10;;;;;;;;;;5073017;28;20068;-72
2022/10/11 14:23:58;;;;;;;5.18;2.05;;;;;;;;;;5072946;28;20045;-73
2022/10/11 14:26:25;;;;;;;5.88;2.33;;;;;;;;;;5072715;28;20162;-72
2022/10/11 14:28:56;;;;;;;7.28;2.08;;;;;;;;;;5072430;28;20040;-72
2022/10/11 14:31:22;;;;;;;4.03;1.88;;;;;;;;;;5070820;28;20045;-72
2022/10/11 14:33:48;;;;;;;3.22;1.95;;;;;;;;;;5071748;28;20427;-73
2022/10/11 14:36:15;;;;;;;4.60;2.10;;;;;;;;;;5072580;28;20095;-72
2022/10/11 14:38:41;;;;;;;4.35;2.38;;;;;;;;;;5072589;28;20453;-73
2022/10/11 14:41:07;;;;;;;5.13;2.33;;;;;;;;;;5072926;28;20131;-72
2022/10/11 14:43:33;;;;;;;4.22;1.73;;;;;;;;;;5072627;28;20510;-72
2022/10/11 14:45:59;;;;;;;5.00;2.20;;;;;;;;;;5069848;28;20044;-72
2022/10/11 14:48:25;;;;;;;2.67;1.95;;;;;;;;;;5072900;28;20041;-72
2022/10/11 14:50:54;;;;;;;4.18;2.50;;;;;;;;;;5072844;28;20040;-72
2022/10/11 14:53:21;;;;;;;4.00;2.00;;;;;;;;;;5070113;28;20084;-72